Cotterel, Idaho
Current Conditions -  °F | °C
As of 8:53 PM on Monday 20 Oct 2014 (Local Time) from KBYI Reporting Station
Scattered Clouds Scattered Clouds  
Wind Chill: 66°   Ceiling: Unl
Heat Index: 66°   Visibility: 10mi
Dew Point: 35°   Wind: 14mph
Humidity: 32%   Direction: 200°SSW
Pressure: 29.81"   Gusts: NA
Location:  42.5399°N, 113.621°W
Report Text: KBYI 210253Z AUTO 20012KT 10SM SCT120 19/02 A2981 RMK AO2 SLP071 T01890017 58006
Loading
Personal Weather Stations






























Interactive Weather Map
Tropical Storm Tracking
New forecast layout! Learn more

10-Day Weather Forecast

Advertisements
Track Severe Weather on mobile